createdAt,value
2023-04-28T00:01:46.486Z,18.00
2023-04-28T00:04:14.082Z,18.20
2023-04-28T00:06:41.646Z,18.30
2023-04-28T00:09:11.040Z,18.10
2023-04-28T00:11:38.642Z,18.20
2023-04-28T00:14:06.172Z,18.20
2023-04-28T00:16:33.483Z,18.40
2023-04-28T00:19:00.877Z,18.50
2023-04-28T00:21:28.661Z,18.30
2023-04-28T00:23:55.874Z,17.90
2023-04-28T00:26:23.030Z,18.00
2023-04-28T00:28:50.334Z,18.20
2023-04-28T00:31:17.705Z,18.20
2023-04-28T00:33:45.383Z,18.60
2023-04-28T00:36:12.658Z,18.50
2023-04-28T00:38:39.866Z,18.70
2023-04-28T00:41:07.262Z,18.50
2023-04-28T00:43:45.508Z,18.60
2023-04-28T00:46:28.635Z,18.60
2023-04-28T00:48:56.572Z,18.20
2023-04-28T00:51:23.882Z,18.30
2023-04-28T00:53:51.525Z,17.60
2023-04-28T00:56:18.727Z,18.20
2023-04-28T00:58:45.885Z,18.20
2023-04-28T01:01:13.086Z,18.50
2023-04-28T01:03:41.472Z,18.70
2023-04-28T01:06:09.564Z,18.60
2023-04-28T01:08:38.298Z,18.40
2023-04-28T01:11:06.848Z,17.30
2023-04-28T01:13:34.032Z,17.10
2023-04-28T01:16:01.564Z,17.30
2023-04-28T01:18:28.721Z,17.30
2023-04-28T01:20:56.182Z,17.60
2023-04-28T01:23:23.382Z,16.60
2023-04-28T01:25:50.711Z,16.50
2023-04-28T01:28:17.903Z,17.00
2023-04-28T01:30:45.284Z,17.20
2023-04-28T01:33:28.274Z,17.60
2023-04-28T01:36:20.570Z,17.70
2023-04-28T01:38:47.818Z,17.50
2023-04-28T01:41:15.088Z,17.60
2023-04-28T01:43:43.795Z,17.40
2023-04-28T01:46:11.387Z,17.20
2023-04-28T01:48:38.605Z,17.30
2023-04-28T01:51:05.838Z,17.30
2023-04-28T01:53:32.996Z,17.30
2023-04-28T01:56:00.159Z,17.10
2023-04-28T01:58:27.385Z,17.00
2023-04-28T02:00:54.664Z,16.50
2023-04-28T02:03:22.040Z,16.50
2023-04-28T02:05:50.071Z,16.40
2023-04-28T02:08:17.242Z,16.10
2023-04-28T02:10:45.111Z,15.70
2023-04-28T02:13:12.387Z,15.10
2023-04-28T02:15:43.020Z,15.10
2023-04-28T02:18:11.038Z,14.90
2023-04-28T02:20:38.474Z,14.60
2023-04-28T02:23:05.707Z,14.70
2023-04-28T02:25:32.898Z,14.60
2023-04-28T02:28:00.107Z,14.50
2023-04-28T02:30:27.466Z,14.60
2023-04-28T02:32:54.721Z,14.40
2023-04-28T02:35:22.060Z,14.60
2023-04-28T02:37:49.222Z,14.40
2023-04-28T02:40:16.443Z,14.40
2023-04-28T02:42:43.602Z,14.00
2023-04-28T02:45:11.285Z,13.80
2023-04-28T02:47:38.554Z,14.20
2023-04-28T02:50:06.516Z,13.60
2023-04-28T02:52:33.707Z,13.90
2023-04-28T02:55:01.052Z,14.30
2023-04-28T02:57:28.236Z,14.10
2023-04-28T02:59:55.504Z,14.10
2023-04-28T03:02:23.094Z,14.50
2023-04-28T03:04:50.549Z,14.20
2023-04-28T03:07:17.718Z,14.10
2023-04-28T03:09:46.264Z,14.30
2023-04-28T03:12:13.456Z,14.30
2023-04-28T03:14:40.818Z,14.30
2023-04-28T03:17:08.018Z,14.20
2023-04-28T03:19:35.187Z,14.40
2023-04-28T03:22:02.364Z,14.80
2023-04-28T03:24:29.864Z,14.70
2023-04-28T03:26:57.192Z,14.70
2023-04-28T03:29:25.535Z,14.50
2023-04-28T03:31:52.813Z,14.50
2023-04-28T03:34:20.045Z,14.40
2023-04-28T03:36:47.275Z,14.80
2023-04-28T03:39:14.499Z,14.90
2023-04-28T03:41:41.752Z,14.50
2023-04-28T03:44:08.886Z,14.70
2023-04-28T03:46:36.153Z,14.50
2023-04-28T03:49:03.371Z,14.80
2023-04-28T03:51:31.892Z,14.30
2023-04-28T03:53:59.194Z,14.40
2023-04-28T03:56:26.377Z,14.50
2023-04-28T03:58:53.554Z,14.70
2023-04-28T04:01:20.725Z,14.90
2023-04-28T04:03:48.111Z,14.80
2023-04-28T04:06:15.583Z,14.70
2023-04-28T04:08:43.043Z,14.90
2023-04-28T04:11:10.310Z,14.60
2023-04-28T04:13:37.478Z,15.10
2023-04-28T04:16:04.967Z,14.50
2023-04-28T04:18:32.175Z,14.80
2023-04-28T04:20:59.466Z,14.20
2023-04-28T04:23:26.678Z,14.60
2023-04-28T04:25:53.874Z,14.50
2023-04-28T04:28:21.297Z,14.90
2023-04-28T04:30:48.483Z,14.90
2023-04-28T04:33:15.678Z,15.10
2023-04-28T04:35:43.044Z,14.40
2023-04-28T04:38:10.450Z,14.60
2023-04-28T04:40:37.669Z,14.90
2023-04-28T04:43:04.855Z,14.70
2023-04-28T04:45:33.658Z,14.90
2023-04-28T04:48:00.859Z,14.90
2023-04-28T04:50:28.113Z,14.90
2023-04-28T04:52:57.299Z,14.80
2023-04-28T04:55:24.709Z,14.90
2023-04-28T04:57:52.296Z,15.10
2023-04-28T05:00:19.839Z,15.00
2023-04-28T05:02:47.164Z,14.60
2023-04-28T05:05:21.166Z,14.60
2023-04-28T05:07:49.453Z,14.70
2023-04-28T05:10:16.790Z,14.70
2023-04-28T05:12:45.611Z,14.70
2023-04-28T05:15:14.791Z,14.50
2023-04-28T05:17:42.032Z,15.10
2023-04-28T05:20:11.609Z,14.80
2023-04-28T05:22:39.984Z,15.10
2023-04-28T05:25:07.861Z,14.50
2023-04-28T05:27:37.766Z,14.80
2023-04-28T05:30:07.544Z,14.30
2023-04-28T05:32:35.938Z,14.40
2023-04-28T05:35:03.382Z,14.50
2023-04-28T05:37:30.571Z,14.60
2023-04-28T05:39:57.818Z,14.80
2023-04-28T05:42:25.025Z,14.30
2023-04-28T05:44:52.199Z,14.50
2023-04-28T05:47:19.392Z,14.70
2023-04-28T05:49:46.551Z,14.40
2023-04-28T05:52:13.769Z,14.60
2023-04-28T05:54:40.950Z,14.10
2023-04-28T05:57:08.245Z,15.00
2023-04-28T05:59:35.517Z,14.10
2023-04-28T06:02:02.761Z,14.60
2023-04-28T06:04:30.203Z,14.60
2023-04-28T06:06:57.685Z,14.30
2023-04-28T06:09:24.908Z,14.60
2023-04-28T06:11:52.189Z,14.80
2023-04-28T06:14:19.587Z,14.90
2023-04-28T06:16:46.943Z,14.60
2023-04-28T06:19:15.286Z,14.50
2023-04-28T06:21:42.465Z,14.30
2023-04-28T06:24:09.659Z,14.30
2023-04-28T06:26:36.866Z,14.20
2023-04-28T06:29:04.329Z,14.50
2023-04-28T06:31:31.672Z,14.30
2023-04-28T06:33:58.866Z,14.40
2023-04-28T06:36:26.378Z,14.20
2023-04-28T06:38:53.734Z,13.90
2023-04-28T06:41:21.276Z,14.10
2023-04-28T06:43:48.462Z,13.90
2023-04-28T06:46:15.966Z,13.90
2023-04-28T06:48:43.397Z,14.10
2023-04-28T06:51:10.613Z,13.80
2023-04-28T06:53:38.015Z,13.90
2023-04-28T06:56:05.461Z,14.00
2023-04-28T06:58:32.719Z,13.70
2023-04-28T07:00:59.937Z,13.80
2023-04-28T07:03:27.952Z,13.90
2023-04-28T07:05:55.269Z,13.70
2023-04-28T07:08:22.569Z,13.60
2023-04-28T07:10:49.730Z,13.70
2023-04-28T07:13:16.996Z,13.70
2023-04-28T07:15:44.185Z,13.70
2023-04-28T07:18:11.434Z,13.70
2023-04-28T07:20:38.628Z,13.80
2023-04-28T07:23:05.830Z,14.00
2023-04-28T07:25:33.116Z,13.80
2023-04-28T07:28:02.582Z,13.70
2023-04-28T07:30:29.877Z,13.70
2023-04-28T07:32:57.310Z,13.60
2023-04-28T07:35:24.858Z,13.70
2023-04-28T07:37:52.420Z,13.80
2023-04-28T07:40:20.282Z,13.90
2023-04-28T07:42:47.934Z,14.00
2023-04-28T07:45:16.154Z,14.10
2023-04-28T07:47:43.394Z,13.90
2023-04-28T07:50:12.091Z,13.60
2023-04-28T07:52:39.648Z,13.80
2023-04-28T07:55:07.086Z,14.20
2023-04-28T07:57:34.432Z,13.70
2023-04-28T08:00:01.734Z,13.80
2023-04-28T08:02:29.075Z,13.80
2023-04-28T08:04:56.795Z,13.80
2023-04-28T08:07:24.669Z,13.90
2023-04-28T08:09:53.714Z,13.80
2023-04-28T08:12:21.888Z,14.00
2023-04-28T08:14:49.104Z,14.20
2023-04-28T08:17:17.545Z,14.00
2023-04-28T08:19:46.290Z,14.10
2023-04-28T08:22:13.647Z,13.70
2023-04-28T08:24:41.028Z,14.30
2023-04-28T08:27:08.210Z,13.80
2023-04-28T08:29:35.433Z,13.90
2023-04-28T08:32:02.650Z,14.20
2023-04-28T08:34:29.865Z,14.20
2023-04-28T08:36:57.087Z,14.20
2023-04-28T08:39:26.389Z,14.10
2023-04-28T08:41:53.979Z,14.20
2023-04-28T08:44:23.486Z,14.20
2023-04-28T08:46:50.888Z,14.10
2023-04-28T08:49:19.563Z,14.10
2023-04-28T08:52:13.439Z,14.40
2023-04-28T08:55:03.721Z,14.60
2023-04-28T08:58:01.400Z,14.80
2023-04-28T09:00:40.292Z,14.50
2023-04-28T09:03:20.810Z,14.90
2023-04-28T09:06:21.698Z,14.40
2023-04-28T09:09:20.058Z,14.70
2023-04-28T09:12:20.349Z,14.50
2023-04-28T09:14:59.107Z,14.30
2023-04-28T09:17:32.920Z,14.60
2023-04-28T09:27:15.508Z,14.60
2023-04-28T09:30:31.282Z,14.30
2023-04-28T09:33:22.055Z,14.10
2023-04-28T09:37:20.872Z,14.40
2023-04-28T09:40:11.752Z,14.20
2023-04-28T09:43:21.288Z,14.50
2023-04-28T09:45:49.547Z,14.50
2023-04-28T09:48:16.369Z,14.60
2023-04-28T09:50:43.199Z,14.70
2023-04-28T09:53:13.152Z,14.50
2023-04-28T09:55:45.593Z,14.50
2023-04-28T09:58:14.027Z,14.70
2023-04-28T10:00:41.933Z,15.00
2023-04-28T10:03:10.034Z,14.70
2023-04-28T10:05:40.684Z,14.80
2023-04-28T10:08:08.187Z,15.00
2023-04-28T10:10:35.394Z,14.70
2023-04-28T10:13:02.958Z,14.50
2023-04-28T10:15:30.251Z,14.60
2023-04-28T10:17:58.307Z,14.50
2023-04-28T10:20:27.261Z,15.00
2023-04-28T10:23:42.433Z,14.60
2023-04-28T10:26:12.597Z,14.60
2023-04-28T10:28:49.173Z,14.90
2023-04-28T10:31:21.438Z,14.80
2023-04-28T10:33:49.671Z,14.90
2023-04-28T10:36:51.183Z,14.80
2023-04-28T10:39:18.556Z,15.30
2023-04-28T10:41:47.725Z,15.20
2023-04-28T10:44:30.093Z,15.50
2023-04-28T10:47:04.604Z,15.00
2023-04-28T10:50:01.191Z,15.10
2023-04-28T10:52:39.624Z,15.20
2023-04-28T10:55:39.899Z,15.10
2023-04-28T10:58:16.246Z,15.20
2023-04-28T11:00:52.625Z,15.30
2023-04-28T11:04:13.384Z,15.30
2023-04-28T11:06:42.037Z,15.70
2023-04-28T11:09:15.084Z,15.90
2023-04-28T11:12:00.157Z,15.60
2023-04-28T11:14:30.084Z,15.40
2023-04-28T11:17:05.764Z,15.50
2023-04-28T11:19:38.939Z,15.80
2023-04-28T11:22:20.423Z,15.70
2023-04-28T11:24:58.321Z,15.80
2023-04-28T11:27:33.263Z,15.80
2023-04-28T11:30:01.443Z,15.90
2023-04-28T11:32:33.998Z,15.90
2023-04-28T11:35:01.193Z,16.10
2023-04-28T11:37:28.031Z,16.00
2023-04-28T11:39:54.920Z,15.90
2023-04-28T11:42:21.756Z,16.60
2023-04-28T11:44:53.504Z,17.00
2023-04-28T11:47:32.545Z,16.80
2023-04-28T11:49:59.846Z,16.90
2023-04-28T11:52:27.413Z,17.20
2023-04-28T11:55:00.207Z,16.70
2023-04-28T11:57:27.825Z,17.10
2023-04-28T12:00:12.023Z,17.30
2023-04-28T12:02:39.649Z,17.70
2023-04-28T12:05:07.870Z,17.00
2023-04-28T12:07:45.167Z,17.70
2023-04-28T12:10:16.729Z,17.70
2023-04-28T12:12:51.153Z,18.20
2023-04-28T12:15:21.918Z,18.50
2023-04-28T12:17:50.604Z,18.00
2023-04-28T12:20:38.086Z,17.30
2023-04-28T12:23:06.099Z,17.50
2023-04-28T12:25:34.929Z,17.40
2023-04-28T12:28:08.183Z,17.80
2023-04-28T12:30:42.480Z,17.50
2023-04-28T12:33:27.015Z,17.40
2023-04-28T12:35:55.884Z,17.50
2023-04-28T12:38:23.976Z,17.60
2023-04-28T12:40:50.869Z,17.70
2023-04-28T12:43:17.676Z,17.50
2023-04-28T12:45:44.554Z,18.00
2023-04-28T12:48:11.390Z,18.00
2023-04-28T12:50:38.249Z,17.80
2023-04-28T12:53:05.183Z,18.00
2023-04-28T12:55:32.032Z,18.20
2023-04-28T12:57:59.386Z,18.00
2023-04-28T13:00:26.422Z,18.00
2023-04-28T13:02:53.431Z,18.40
2023-04-28T13:05:20.350Z,17.80
2023-04-28T13:07:47.663Z,18.10
2023-04-28T13:10:14.524Z,18.20
2023-04-28T13:12:41.630Z,18.10
2023-04-28T13:15:09.426Z,18.40
2023-04-28T13:17:36.240Z,18.60
2023-04-28T13:20:05.251Z,18.40
2023-04-28T13:22:32.281Z,18.00
2023-04-28T13:24:59.152Z,18.50
2023-04-28T13:27:25.948Z,18.90
2023-04-28T13:29:52.716Z,18.30
2023-04-28T13:32:19.682Z,18.80
2023-04-28T13:34:47.055Z,18.40
2023-04-28T13:37:14.110Z,18.60
2023-04-28T13:39:41.057Z,19.20
2023-04-28T13:42:08.023Z,18.90
2023-04-28T13:44:34.994Z,18.70
2023-04-28T13:47:02.097Z,18.90
2023-04-28T13:49:29.210Z,18.80
2023-04-28T13:51:56.385Z,18.90
2023-04-28T13:54:23.186Z,18.60
2023-04-28T13:56:50.665Z,18.90
2023-04-28T13:59:17.697Z,19.10
2023-04-28T14:01:44.510Z,18.60
2023-04-28T14:04:11.680Z,18.40
2023-04-28T14:06:38.686Z,18.50
2023-04-28T14:09:06.318Z,18.20
2023-04-28T14:11:33.080Z,18.20
2023-04-28T14:13:59.949Z,17.90
2023-04-28T14:16:27.482Z,18.10
2023-04-28T14:18:54.232Z,18.00
2023-04-28T14:21:21.033Z,18.20
2023-04-28T14:23:48.018Z,18.20
2023-04-28T14:26:14.878Z,18.20
2023-04-28T14:28:42.201Z,18.30
2023-04-28T14:31:09.292Z,18.30
2023-04-28T14:33:36.812Z,18.40
2023-04-28T14:36:04.028Z,18.30
2023-04-28T14:38:31.131Z,18.50
2023-04-28T14:40:58.219Z,18.50
2023-04-28T14:43:25.070Z,18.60
2023-04-28T14:45:52.417Z,18.80
2023-04-28T14:48:20.035Z,18.70
2023-04-28T14:50:46.883Z,18.70
2023-04-28T14:53:13.690Z,18.60
2023-04-28T14:55:40.470Z,18.60
2023-04-28T14:58:07.442Z,18.50
2023-04-28T15:00:36.080Z,18.90
2023-04-28T15:03:03.059Z,18.80
2023-04-28T15:05:30.001Z,18.80
2023-04-28T15:07:56.943Z,19.00
2023-04-28T15:10:23.878Z,18.80
2023-04-28T15:12:50.849Z,18.80
2023-04-28T15:15:17.662Z,18.90
2023-04-28T15:17:45.328Z,19.20
2023-04-28T15:20:12.294Z,19.20
2023-04-28T15:22:39.128Z,19.80
2023-04-28T15:25:07.338Z,19.50
2023-04-28T15:27:34.094Z,19.50
2023-04-28T15:30:01.406Z,19.40
2023-04-28T15:32:30.315Z,19.30
2023-04-28T15:34:57.623Z,19.40
2023-04-28T15:37:42.737Z,19.50
2023-04-28T15:40:13.138Z,19.20
2023-04-28T15:42:42.357Z,19.20
2023-04-28T15:45:13.266Z,19.10
2023-04-28T15:47:40.589Z,19.00
2023-04-28T15:50:10.490Z,19.10
2023-04-28T15:52:47.321Z,19.40
2023-04-28T15:55:15.793Z,19.10
2023-04-28T15:57:43.384Z,19.50
2023-04-28T16:00:11.486Z,19.50
2023-04-28T16:02:39.161Z,19.10
2023-04-28T16:05:07.185Z,19.40
2023-04-28T16:07:41.032Z,19.00
2023-04-28T16:10:16.467Z,18.90
2023-04-28T16:12:43.528Z,19.00
2023-04-28T16:15:13.017Z,18.90
2023-04-28T16:17:41.052Z,19.30
2023-04-28T16:20:10.135Z,19.20
2023-04-28T16:22:37.610Z,19.60
2023-04-28T16:25:05.276Z,19.30
2023-04-28T16:27:32.865Z,19.30
2023-04-28T16:30:00.291Z,19.50
2023-04-28T16:32:27.263Z,19.50
2023-04-28T16:34:58.294Z,19.60
2023-04-28T16:37:25.747Z,19.70
2023-04-28T16:39:52.931Z,19.80
2023-04-28T16:42:22.715Z,20.00
2023-04-28T16:44:52.468Z,19.60
2023-04-28T16:47:20.251Z,19.70
2023-04-28T16:49:47.410Z,20.10
2023-04-28T16:52:14.381Z,19.40
2023-04-28T16:54:41.604Z,19.20
2023-04-28T16:57:08.440Z,19.20
2023-04-28T16:59:35.286Z,19.10
2023-04-28T17:02:03.910Z,18.90
2023-04-28T17:04:31.351Z,18.90
2023-04-28T17:06:58.787Z,19.10
2023-04-28T17:09:27.426Z,18.70
2023-04-28T17:11:54.984Z,18.70
2023-04-28T17:14:21.962Z,18.80
2023-04-28T17:16:48.776Z,18.80
2023-04-28T17:19:16.680Z,18.70
2023-04-28T17:21:43.540Z,18.70
2023-04-28T17:24:10.341Z,18.70
2023-04-28T17:26:37.306Z,19.10
2023-04-28T17:29:04.741Z,18.90
2023-04-28T17:31:31.648Z,18.60
2023-04-28T17:34:00.421Z,18.70
2023-04-28T17:36:28.480Z,18.60
2023-04-28T17:38:56.040Z,18.50
2023-04-28T17:41:23.125Z,18.70
2023-04-28T17:43:53.516Z,18.30
2023-04-28T17:46:21.845Z,18.40
2023-04-28T17:48:49.134Z,18.40
2023-04-28T17:51:15.961Z,18.30
2023-04-28T17:53:43.182Z,18.40
2023-04-28T17:56:10.050Z,18.40
2023-04-28T17:58:37.255Z,18.60
2023-04-28T18:01:06.565Z,18.60
2023-04-28T18:03:38.722Z,18.40
2023-04-28T18:06:07.866Z,18.50
2023-04-28T18:08:36.605Z,18.40
2023-04-28T18:11:03.703Z,18.50
2023-04-28T18:13:30.931Z,18.40
2023-04-28T18:15:57.796Z,18.60
2023-04-28T18:20:58.418Z,18.40
2023-04-28T18:23:26.547Z,18.40
2023-04-28T18:25:53.363Z,18.60
2023-04-28T18:28:20.194Z,18.40
2023-04-28T18:30:46.980Z,18.40
2023-04-28T18:33:13.810Z,18.40
2023-04-28T18:35:40.705Z,18.30
2023-04-28T18:38:07.518Z,18.30
2023-04-28T18:40:37.496Z,19.40
2023-04-28T18:43:05.926Z,18.80
2023-04-28T18:45:35.661Z,19.00
2023-04-28T18:48:03.673Z,18.50
2023-04-28T18:50:32.688Z,18.90
2023-04-28T18:53:04.955Z,19.40
2023-04-28T18:55:34.899Z,19.60
2023-04-28T18:58:02.210Z,19.60
2023-04-28T19:00:29.537Z,19.60
2023-04-28T19:02:56.633Z,19.30
2023-04-28T19:05:23.840Z,18.70
2023-04-28T19:07:50.702Z,19.20
2023-04-28T19:10:17.592Z,19.20
2023-04-28T19:12:44.379Z,19.20
2023-04-28T19:15:11.188Z,18.80
2023-04-28T19:17:38.140Z,18.10
2023-04-28T19:20:05.861Z,16.60
2023-04-28T19:22:36.103Z,17.40
2023-04-28T19:25:04.447Z,16.90
2023-04-28T19:27:33.776Z,16.80
2023-04-28T19:30:02.620Z,17.40
2023-04-28T19:32:29.847Z,18.00
2023-04-28T19:34:56.804Z,18.40
2023-04-28T19:37:23.888Z,18.60
2023-04-28T19:39:51.296Z,18.80
2023-04-28T19:42:18.489Z,18.70
2023-04-28T19:44:46.700Z,18.70
2023-04-28T19:47:13.514Z,18.80
2023-04-28T19:49:43.419Z,18.70
2023-04-28T19:52:10.334Z,18.80
2023-04-28T19:54:38.737Z,18.60
2023-04-28T19:57:05.634Z,18.70
2023-04-28T19:59:32.444Z,18.60
2023-04-28T20:01:59.631Z,18.70
2023-04-28T20:04:29.166Z,18.70
2023-04-28T20:06:56.232Z,18.80
2023-04-28T20:09:23.058Z,18.70
2023-04-28T20:11:49.897Z,18.70
2023-04-28T20:14:16.652Z,18.30
2023-04-28T20:16:44.467Z,18.30
2023-04-28T20:19:11.321Z,18.20
2023-04-28T20:21:39.421Z,18.30
2023-04-28T20:24:07.030Z,18.20
2023-04-28T20:26:34.445Z,18.30
2023-04-28T20:29:01.206Z,18.30
2023-04-28T20:31:28.072Z,18.10
2023-04-28T20:33:54.984Z,18.20
2023-04-28T20:36:21.731Z,18.40
2023-04-28T20:38:49.059Z,18.50
2023-04-28T20:41:16.233Z,18.50
2023-04-28T20:43:43.083Z,18.60
2023-04-28T20:46:10.647Z,18.40
2023-04-28T20:48:37.446Z,18.50
2023-04-28T20:51:05.075Z,18.30
2023-04-28T20:53:33.100Z,18.40
2023-04-28T20:55:59.968Z,18.20
2023-04-28T20:58:27.875Z,18.40
2023-04-28T21:00:54.753Z,18.40
2023-04-28T21:03:23.585Z,18.50
2023-04-28T21:05:50.649Z,18.20
2023-04-28T21:08:17.525Z,18.30
2023-04-28T21:10:44.331Z,18.40
2023-04-28T21:13:12.042Z,18.40
2023-04-28T21:15:42.056Z,18.40
2023-04-28T21:18:08.872Z,17.80
2023-04-28T21:20:35.719Z,18.10
2023-04-28T21:23:02.702Z,18.10
2023-04-28T21:25:29.484Z,17.40
2023-04-28T21:27:56.413Z,17.60
2023-04-28T21:30:23.260Z,18.00
2023-04-28T21:32:50.286Z,18.10
2023-04-28T21:35:17.144Z,18.20
2023-04-28T21:37:43.932Z,18.30
2023-04-28T21:40:11.417Z,18.10
2023-04-28T21:42:38.239Z,18.00
2023-04-28T21:45:07.309Z,18.10
2023-04-28T21:47:34.174Z,18.20
2023-04-28T21:50:00.964Z,17.90
2023-04-28T21:52:27.767Z,18.10
2023-04-28T21:54:54.527Z,18.10
2023-04-28T21:57:21.321Z,18.20
2023-04-28T21:59:48.594Z,18.10
2023-04-28T22:02:15.674Z,17.80
2023-04-28T22:04:43.344Z,18.20
2023-04-28T22:07:10.706Z,18.30
2023-04-28T22:09:37.695Z,18.40
2023-04-28T22:12:04.617Z,18.10
2023-04-28T22:17:01.273Z,18.10
2023-04-28T22:19:28.082Z,17.80
2023-04-28T22:21:54.902Z,17.70
2023-04-28T22:24:21.635Z,18.00
2023-04-28T22:26:48.601Z,18.00
2023-04-28T22:29:15.398Z,18.20
2023-04-28T22:31:42.455Z,18.20
2023-04-28T22:34:10.301Z,18.20
2023-04-28T22:36:37.529Z,18.00
2023-04-28T22:39:05.609Z,17.90
2023-04-28T22:41:32.404Z,18.00
2023-04-28T22:43:59.229Z,18.20
2023-04-28T22:46:26.257Z,18.00
2023-04-28T22:48:53.110Z,18.10
2023-04-28T22:51:20.314Z,17.90
2023-04-28T22:53:48.335Z,18.10
2023-04-28T22:56:15.767Z,18.20
2023-04-28T22:58:42.579Z,18.10
2023-04-28T23:01:09.568Z,17.80
2023-04-28T23:03:38.253Z,17.90
2023-04-28T23:06:05.377Z,17.60
2023-04-28T23:08:32.244Z,17.40
2023-04-28T23:10:59.061Z,17.30
2023-04-28T23:13:26.274Z,17.40
2023-04-28T23:15:53.184Z,17.50
2023-04-28T23:18:20.005Z,17.60
2023-04-28T23:20:50.037Z,17.80
2023-04-28T23:23:16.917Z,17.70
2023-04-28T23:25:43.906Z,17.50
2023-04-28T23:28:10.707Z,17.50
2023-04-28T23:30:37.732Z,17.70
2023-04-28T23:33:05.009Z,17.80
2023-04-28T23:35:33.110Z,17.80
2023-04-28T23:37:59.861Z,17.70
2023-04-28T23:40:26.886Z,17.30
2023-04-28T23:42:54.062Z,17.50
2023-04-28T23:45:20.848Z,17.60
2023-04-28T23:47:47.896Z,17.70
2023-04-28T23:50:14.883Z,17.60
2023-04-28T23:52:41.613Z,17.60
2023-04-28T23:55:13.133Z,17.80
2023-04-28T23:57:40.351Z,17.60
